createdAt,value
2022-10-28T00:01:36.411Z,11.52
2022-10-28T00:04:06.196Z,11.56
2022-10-28T00:06:37.557Z,11.76
2022-10-28T00:09:09.655Z,11.59
2022-10-28T00:11:40.881Z,11.52
2022-10-28T00:14:11.655Z,11.69
2022-10-28T00:16:41.227Z,11.67
2022-10-28T00:19:13.148Z,11.64
2022-10-28T00:21:45.044Z,11.57
2022-10-28T00:24:15.047Z,11.61
2022-10-28T00:26:45.022Z,11.63
2022-10-28T00:29:18.294Z,11.58
2022-10-28T00:31:48.156Z,11.71
2022-10-28T00:34:24.049Z,11.68
2022-10-28T00:36:53.546Z,11.65
2022-10-28T00:39:25.894Z,11.57
2022-10-28T00:42:03.934Z,11.58
2022-10-28T00:44:55.177Z,11.41
2022-10-28T00:47:38.221Z,11.55
2022-10-28T00:50:33.171Z,11.54
2022-10-28T00:53:09.371Z,11.42
2022-10-28T00:55:39.170Z,11.46
2022-10-28T00:58:10.032Z,11.32
2022-10-28T01:00:39.542Z,11.39
2022-10-28T01:03:10.088Z,11.49
2022-10-28T01:05:43.523Z,11.46
2022-10-28T01:08:14.060Z,11.44
2022-10-28T01:10:52.510Z,11.57
2022-10-28T01:14:12.055Z,11.33
2022-10-28T01:17:13.467Z,11.54
2022-10-28T01:20:13.452Z,11.41
2022-10-28T01:23:03.617Z,11.52
2022-10-28T01:25:56.415Z,11.45
2022-10-28T01:29:03.357Z,11.49
2022-10-28T01:31:51.959Z,11.37
2022-10-28T01:34:29.938Z,11.48
2022-10-28T01:37:39.034Z,11.47
2022-10-28T01:41:05.952Z,11.61
2022-10-28T01:43:57.069Z,11.40
2022-10-28T01:47:04.972Z,11.52
2022-10-28T01:50:10.956Z,11.46
2022-10-28T01:52:42.408Z,11.45
2022-10-28T01:55:21.715Z,11.34
2022-10-28T01:57:54.445Z,11.28
2022-10-28T02:00:23.343Z,11.48
2022-10-28T02:02:54.323Z,11.52
2022-10-28T02:05:48.599Z,11.32
2022-10-28T02:09:15.768Z,11.36
2022-10-28T02:12:01.341Z,11.36
2022-10-28T02:15:22.900Z,11.21
2022-10-28T02:18:17.418Z,11.13
2022-10-28T02:20:59.269Z,10.96
2022-10-28T02:23:51.291Z,10.96
2022-10-28T02:26:50.463Z,11.32
2022-10-28T02:29:46.001Z,11.16
2022-10-28T02:32:22.108Z,11.10
2022-10-28T02:34:58.445Z,11.25
2022-10-28T02:37:34.742Z,11.29
2022-10-28T02:40:16.075Z,11.10
2022-10-28T02:42:53.510Z,11.39
2022-10-28T02:45:33.234Z,11.49
2022-10-28T02:48:19.812Z,11.45
2022-10-28T02:51:02.577Z,11.40
2022-10-28T02:54:14.853Z,11.42
2022-10-28T02:57:08.161Z,11.30
2022-10-28T02:59:36.791Z,11.22
2022-10-28T03:02:05.652Z,11.21
2022-10-28T03:04:34.279Z,11.25
2022-10-28T03:07:03.647Z,11.26
2022-10-28T03:09:32.247Z,11.20
2022-10-28T03:12:00.848Z,11.21
2022-10-28T03:14:29.302Z,11.13
2022-10-28T03:16:57.775Z,11.12
2022-10-28T03:19:26.351Z,11.26
2022-10-28T03:21:55.218Z,11.21
2022-10-28T03:24:22.941Z,11.12
2022-10-28T03:26:51.486Z,11.19
2022-10-28T03:29:19.206Z,11.11
2022-10-28T03:31:46.929Z,11.18
2022-10-28T03:34:14.673Z,11.12
2022-10-28T03:36:42.378Z,11.14
2022-10-28T03:39:10.848Z,11.23
2022-10-28T03:41:38.641Z,11.23
2022-10-28T03:44:07.513Z,11.42
2022-10-28T03:46:36.348Z,11.32
2022-10-28T03:49:05.198Z,11.09
2022-10-28T03:51:33.792Z,11.27
2022-10-28T03:54:01.654Z,11.28
2022-10-28T03:56:30.297Z,11.17
2022-10-28T03:58:58.863Z,11.18
2022-10-28T04:01:28.295Z,11.24
2022-10-28T04:03:56.044Z,11.29
2022-10-28T04:06:23.880Z,11.26
2022-10-28T04:08:51.589Z,11.36
2022-10-28T04:11:19.314Z,11.06
2022-10-28T04:13:47.903Z,11.14
2022-10-28T04:16:16.489Z,11.32
2022-10-28T04:18:44.135Z,11.19
2022-10-28T04:21:14.593Z,11.15
2022-10-28T04:23:43.156Z,11.31
2022-10-28T04:26:11.949Z,11.05
2022-10-28T04:28:40.621Z,10.95
2022-10-28T04:31:10.226Z,11.04
2022-10-28T04:33:37.906Z,11.13
2022-10-28T04:36:07.129Z,11.03
2022-10-28T04:38:34.884Z,11.18
2022-10-28T04:41:02.643Z,11.08
2022-10-28T04:43:31.109Z,11.23
2022-10-28T04:46:02.420Z,11.28
2022-10-28T04:48:30.096Z,11.12
2022-10-28T04:50:58.571Z,11.26
2022-10-28T04:53:27.348Z,11.16
2022-10-28T04:56:00.099Z,11.19
2022-10-28T04:58:28.947Z,11.26
2022-10-28T05:01:08.778Z,11.23
2022-10-28T05:03:37.780Z,11.15
2022-10-28T05:06:07.532Z,10.97
2022-10-28T05:08:36.144Z,11.18
2022-10-28T05:11:04.949Z,11.02
2022-10-28T05:13:34.514Z,11.11
2022-10-28T05:16:03.269Z,11.20
2022-10-28T05:18:31.037Z,11.29
2022-10-28T05:21:00.464Z,11.32
2022-10-28T05:23:30.788Z,11.14
2022-10-28T05:26:00.562Z,11.17
2022-10-28T05:28:30.004Z,11.35
2022-10-28T05:30:58.643Z,11.13
2022-10-28T05:33:27.357Z,11.14
2022-10-28T05:35:56.063Z,11.19
2022-10-28T05:38:24.681Z,11.13
2022-10-28T05:40:52.465Z,11.31
2022-10-28T05:43:21.150Z,11.28
2022-10-28T05:45:57.181Z,11.10
2022-10-28T05:48:25.971Z,11.10
2022-10-28T05:50:53.685Z,11.23
2022-10-28T05:53:22.379Z,11.03
2022-10-28T05:55:51.024Z,11.19
2022-10-28T05:58:19.740Z,11.20
2022-10-28T06:00:49.251Z,11.27
2022-10-28T06:03:18.819Z,11.23
2022-10-28T06:05:47.344Z,11.20
2022-10-28T06:08:16.109Z,11.29
2022-10-28T06:10:54.519Z,11.41
2022-10-28T06:13:24.120Z,11.42
2022-10-28T06:15:55.768Z,11.46
2022-10-28T06:18:24.755Z,11.58
2022-10-28T06:20:56.911Z,11.43
2022-10-28T06:23:27.899Z,11.31
2022-10-28T06:26:02.727Z,11.32
2022-10-28T06:28:31.897Z,11.32
2022-10-28T06:31:07.939Z,11.27
2022-10-28T06:33:37.793Z,11.48
2022-10-28T06:36:07.199Z,11.39
2022-10-28T06:38:35.935Z,11.33
2022-10-28T06:41:04.659Z,11.48
2022-10-28T06:43:33.235Z,11.32
2022-10-28T06:46:05.157Z,11.49
2022-10-28T06:48:35.353Z,11.42
2022-10-28T06:51:04.331Z,11.53
2022-10-28T06:53:32.041Z,11.61
2022-10-28T06:56:01.628Z,11.63
2022-10-28T06:58:30.250Z,11.71
2022-10-28T07:01:07.350Z,11.53
2022-10-28T07:03:36.270Z,11.53
2022-10-28T07:06:08.501Z,11.45
2022-10-28T07:08:37.217Z,11.54
2022-10-28T07:11:06.006Z,11.65
2022-10-28T07:13:34.729Z,11.68
2022-10-28T07:16:03.747Z,11.60
2022-10-28T07:18:31.631Z,11.57
2022-10-28T07:21:02.201Z,11.57
2022-10-28T07:23:35.069Z,11.65
2022-10-28T07:26:03.793Z,11.87
2022-10-28T07:28:32.572Z,11.52
2022-10-28T07:31:03.433Z,11.55
2022-10-28T07:33:31.481Z,11.45
2022-10-28T07:36:02.651Z,11.36
2022-10-28T07:38:30.801Z,11.70
2022-10-28T07:40:59.473Z,11.62
2022-10-28T07:43:27.995Z,11.63
2022-10-28T07:45:58.422Z,11.60
2022-10-28T07:48:27.142Z,11.88
2022-10-28T07:50:55.815Z,11.92
2022-10-28T07:53:27.716Z,11.94
2022-10-28T07:56:09.718Z,11.99
2022-10-28T07:58:38.314Z,11.87
2022-10-28T08:01:10.917Z,11.97
2022-10-28T08:03:39.386Z,11.86
2022-10-28T08:06:19.275Z,11.85
2022-10-28T08:08:54.095Z,11.92
2022-10-28T08:11:24.658Z,11.98
2022-10-28T08:13:55.992Z,12.01
2022-10-28T08:16:25.801Z,11.82
2022-10-28T08:18:54.426Z,11.82
2022-10-28T08:21:25.031Z,11.86
2022-10-28T08:23:55.390Z,11.99
2022-10-28T08:26:24.900Z,12.08
2022-10-28T08:28:53.722Z,11.92
2022-10-28T08:31:22.379Z,11.97
2022-10-28T08:33:50.088Z,11.80
2022-10-28T08:36:19.694Z,11.91
2022-10-28T08:38:48.421Z,12.25
2022-10-28T08:41:47.945Z,12.41
2022-10-28T08:44:55.136Z,11.94
2022-10-28T08:47:39.946Z,12.31
2022-10-28T08:50:23.314Z,12.28
2022-10-28T08:53:19.773Z,12.25
2022-10-28T08:55:52.301Z,12.10
2022-10-28T08:58:33.988Z,12.10
2022-10-28T09:01:06.167Z,12.38
2022-10-28T09:03:42.586Z,12.15
2022-10-28T09:06:12.231Z,12.29
2022-10-28T09:08:47.983Z,12.15
2022-10-28T09:12:29.134Z,12.20
2022-10-28T09:15:52.346Z,12.42
2022-10-28T09:18:42.359Z,12.34
2022-10-28T09:21:30.806Z,12.05
2022-10-28T09:24:38.341Z,12.33
2022-10-28T09:27:53.336Z,12.34
2022-10-28T09:31:03.686Z,12.59
2022-10-28T09:33:47.431Z,12.57
2022-10-28T09:37:21.624Z,12.54
2022-10-28T09:40:13.112Z,12.49
2022-10-28T09:43:20.864Z,12.39
2022-10-28T09:45:58.700Z,12.38
2022-10-28T09:48:37.653Z,12.53
2022-10-28T09:51:07.572Z,12.69
2022-10-28T09:53:52.167Z,12.46
2022-10-28T09:56:20.857Z,12.45
2022-10-28T09:58:49.790Z,12.42
2022-10-28T10:01:19.867Z,12.46
2022-10-28T10:03:51.188Z,12.50
2022-10-28T10:06:39.847Z,12.66
2022-10-28T10:09:27.091Z,12.62
2022-10-28T10:12:10.499Z,12.75
2022-10-28T10:14:49.576Z,12.68
2022-10-28T10:17:44.621Z,12.65
2022-10-28T10:20:21.369Z,12.80
2022-10-28T10:22:50.515Z,12.65
2022-10-28T10:25:19.086Z,12.77
2022-10-28T10:28:15.395Z,12.89
2022-10-28T10:31:02.332Z,12.85
2022-10-28T10:33:36.641Z,12.74
2022-10-28T10:36:17.519Z,12.87
2022-10-28T10:38:57.113Z,12.70
2022-10-28T10:41:41.280Z,12.83
2022-10-28T10:44:22.890Z,12.83
2022-10-28T10:47:05.090Z,13.05
2022-10-28T10:49:36.759Z,13.16
2022-10-28T10:52:26.311Z,12.74
2022-10-28T10:55:08.134Z,12.75
2022-10-28T10:57:36.825Z,13.07
2022-10-28T11:00:07.621Z,12.92
2022-10-28T11:02:42.374Z,12.77
2022-10-28T11:05:11.932Z,12.60
2022-10-28T11:07:48.828Z,12.83
2022-10-28T11:10:29.746Z,12.81
2022-10-28T11:13:08.870Z,12.81
2022-10-28T11:15:37.507Z,12.76
2022-10-28T11:18:12.146Z,12.89
2022-10-28T11:21:26.955Z,12.81
2022-10-28T11:24:39.185Z,12.98
2022-10-28T11:27:41.804Z,13.02
2022-10-28T11:30:19.841Z,12.96
2022-10-28T11:33:29.657Z,12.95
2022-10-28T11:36:37.793Z,12.84
2022-10-28T11:40:04.901Z,12.87
2022-10-28T11:43:02.912Z,13.05
2022-10-28T11:46:14.932Z,12.83
2022-10-28T11:49:22.799Z,13.14
2022-10-28T11:52:21.750Z,13.22
2022-10-28T11:55:33.419Z,13.24
2022-10-28T11:58:27.940Z,13.06
2022-10-28T12:02:03.885Z,12.97
2022-10-28T12:05:03.034Z,13.03
2022-10-28T12:08:09.398Z,12.85
2022-10-28T12:11:07.096Z,12.88
2022-10-28T12:17:35.006Z,13.07
2022-10-28T12:20:46.603Z,12.99
2022-10-28T12:23:20.322Z,12.88
2022-10-28T12:25:57.437Z,13.18
2022-10-28T12:28:54.315Z,13.17
2022-10-28T12:31:58.723Z,13.09
2022-10-28T12:34:41.642Z,12.99
2022-10-28T12:37:29.263Z,13.12
2022-10-28T12:40:14.515Z,13.14
2022-10-28T12:42:58.084Z,13.12
2022-10-28T12:45:31.750Z,13.23
2022-10-28T12:48:45.914Z,13.10
2022-10-28T12:51:31.811Z,13.18
2022-10-28T12:54:27.968Z,13.11
2022-10-28T12:57:14.996Z,13.11
2022-10-28T13:00:00.172Z,13.10
2022-10-28T13:03:14.580Z,13.09
2022-10-28T13:06:53.836Z,13.17
2022-10-28T13:10:38.867Z,13.14
2022-10-28T13:13:43.926Z,13.03
2022-10-28T13:16:43.244Z,13.00
2022-10-28T13:19:58.695Z,13.12
2022-10-28T13:22:50.829Z,13.16
2022-10-28T13:25:59.388Z,13.24
2022-10-28T13:28:35.118Z,13.18
2022-10-28T13:31:09.532Z,13.00
2022-10-28T13:33:39.909Z,12.84
2022-10-28T13:36:28.947Z,12.98
2022-10-28T13:39:33.876Z,13.04
2022-10-28T13:42:16.194Z,13.00
2022-10-28T13:44:49.912Z,12.87
2022-10-28T13:47:36.681Z,12.96
2022-10-28T13:50:08.785Z,12.90
2022-10-28T13:52:48.328Z,12.95
2022-10-28T13:55:28.051Z,12.94
2022-10-28T13:58:22.654Z,12.96
2022-10-28T14:00:53.658Z,13.00
2022-10-28T14:03:28.966Z,12.91
2022-10-28T14:06:01.750Z,12.74
2022-10-28T14:08:42.855Z,12.62
2022-10-28T14:11:27.809Z,12.67
2022-10-28T14:14:02.706Z,12.58
2022-10-28T14:17:44.819Z,12.53
2022-10-28T14:20:36.892Z,12.59
2022-10-28T14:23:21.521Z,12.68
2022-10-28T14:25:50.893Z,12.72
2022-10-28T14:28:31.690Z,12.64
2022-10-28T14:31:12.689Z,12.65
2022-10-28T14:33:45.065Z,12.72
2022-10-28T14:36:19.811Z,12.71
2022-10-28T14:39:04.583Z,12.76
2022-10-28T14:42:01.694Z,12.80
2022-10-28T14:45:01.216Z,12.79
2022-10-28T14:48:36.925Z,12.70
2022-10-28T14:51:13.415Z,12.78
2022-10-28T14:53:43.908Z,12.68
2022-10-28T14:56:28.168Z,12.68
2022-10-28T14:59:43.599Z,12.69
2022-10-28T15:02:23.084Z,12.61
2022-10-28T15:05:21.585Z,12.66
2022-10-28T15:07:51.749Z,12.73
2022-10-28T15:10:30.840Z,12.70
2022-10-28T15:13:01.164Z,12.64
2022-10-28T15:15:37.197Z,12.65
2022-10-28T15:18:26.604Z,12.52
2022-10-28T15:21:16.083Z,12.58
2022-10-28T15:23:47.471Z,12.60
2022-10-28T15:26:17.855Z,12.56
2022-10-28T15:28:48.323Z,12.67
2022-10-28T15:31:18.324Z,12.58
2022-10-28T15:33:47.835Z,12.55
2022-10-28T15:36:24.990Z,12.60
2022-10-28T15:39:15.594Z,12.65
2022-10-28T15:41:49.669Z,12.50
2022-10-28T15:44:39.846Z,12.52
2022-10-28T15:47:36.332Z,12.42
2022-10-28T15:50:27.530Z,12.46
2022-10-28T15:53:12.159Z,12.59
2022-10-28T15:56:02.793Z,12.52
2022-10-28T15:58:47.819Z,12.57
2022-10-28T16:01:31.089Z,12.68
2022-10-28T16:04:00.825Z,12.50
2022-10-28T16:06:39.511Z,12.41
2022-10-28T16:09:45.552Z,12.48
2022-10-28T16:12:23.296Z,12.46
2022-10-28T16:15:01.538Z,12.46
2022-10-28T16:17:36.344Z,12.41
2022-10-28T16:20:28.033Z,12.55
2022-10-28T16:22:59.411Z,12.46
2022-10-28T16:25:28.849Z,12.59
2022-10-28T16:27:58.338Z,12.56
2022-10-28T16:30:29.368Z,12.48
2022-10-28T16:32:58.808Z,12.48
2022-10-28T16:35:29.332Z,12.51
2022-10-28T16:37:58.002Z,12.36
2022-10-28T16:43:21.776Z,12.30
2022-10-28T16:45:54.591Z,12.37
2022-10-28T16:48:28.475Z,12.43
2022-10-28T16:51:17.762Z,12.42
2022-10-28T16:53:49.716Z,12.36
2022-10-28T16:56:19.365Z,12.27
2022-10-28T16:58:48.072Z,12.35
2022-10-28T17:01:21.689Z,12.23
2022-10-28T17:03:52.616Z,12.27
2022-10-28T17:06:22.099Z,12.16
2022-10-28T17:09:02.737Z,12.22
2022-10-28T17:11:33.269Z,12.33
2022-10-28T17:14:02.098Z,12.24
2022-10-28T17:16:31.566Z,12.22
2022-10-28T17:19:00.848Z,12.28
2022-10-28T17:21:30.566Z,12.39
2022-10-28T17:24:00.008Z,12.38
2022-10-28T17:26:29.709Z,12.43
2022-10-28T17:28:59.340Z,12.35
2022-10-28T17:31:28.742Z,12.27
2022-10-28T17:33:57.508Z,12.36
2022-10-28T17:36:26.967Z,12.31
2022-10-28T17:38:56.422Z,12.18
2022-10-28T17:41:29.473Z,12.23
2022-10-28T17:43:58.904Z,12.29
2022-10-28T17:46:28.357Z,12.34
2022-10-28T17:48:57.864Z,12.34
2022-10-28T17:51:27.663Z,12.44
2022-10-28T17:53:57.156Z,12.40
2022-10-28T17:56:26.770Z,12.50
2022-10-28T17:58:56.309Z,12.28
2022-10-28T18:01:26.135Z,12.41
2022-10-28T18:03:55.716Z,12.34
2022-10-28T18:06:26.352Z,12.40
2022-10-28T18:08:56.227Z,12.31
2022-10-28T18:11:27.586Z,12.11
2022-10-28T18:13:57.199Z,12.09
2022-10-28T18:16:28.515Z,12.17
2022-10-28T18:19:03.184Z,12.12
2022-10-28T18:21:32.767Z,12.18
2022-10-28T18:24:04.359Z,12.07
2022-10-28T18:26:38.048Z,12.25
2022-10-28T18:29:10.242Z,12.13
2022-10-28T18:31:40.686Z,12.06
2022-10-28T18:34:10.521Z,12.20
2022-10-28T18:36:40.218Z,12.15
2022-10-28T18:39:09.864Z,12.17
2022-10-28T18:41:42.747Z,12.18
2022-10-28T18:44:14.751Z,12.12
2022-10-28T18:46:45.429Z,12.26
2022-10-28T18:49:14.871Z,12.24
2022-10-28T18:51:44.446Z,12.16
2022-10-28T18:54:13.101Z,12.21
2022-10-28T18:56:47.592Z,12.18
2022-10-28T18:59:18.096Z,12.16
2022-10-28T19:01:48.469Z,12.13
2022-10-28T19:04:17.937Z,11.97
2022-10-28T19:06:47.429Z,12.21
2022-10-28T19:09:16.098Z,12.11
2022-10-28T19:11:44.711Z,12.24
2022-10-28T19:14:14.310Z,12.17
2022-10-28T19:16:43.746Z,12.14
2022-10-28T19:19:13.159Z,12.18
2022-10-28T19:21:41.783Z,12.26
2022-10-28T19:24:10.446Z,12.24
2022-10-28T19:26:39.861Z,12.28
2022-10-28T19:29:10.855Z,12.26
2022-10-28T19:31:41.995Z,12.26
2022-10-28T19:34:14.953Z,12.30
2022-10-28T19:36:43.618Z,12.35
2022-10-28T19:39:12.300Z,12.31
2022-10-28T19:41:41.865Z,12.27
2022-10-28T19:44:11.306Z,12.22
2022-10-28T19:46:40.013Z,12.17
2022-10-28T19:49:09.181Z,12.15
2022-10-28T19:51:41.729Z,12.16
2022-10-28T19:54:15.112Z,12.25
2022-10-28T19:56:45.367Z,12.20
2022-10-28T19:59:14.986Z,12.22
2022-10-28T20:01:44.661Z,12.24
2022-10-28T20:04:14.298Z,12.39
2022-10-28T20:06:43.970Z,12.34
2022-10-28T20:09:13.428Z,12.33
2022-10-28T20:11:43.811Z,12.25
2022-10-28T20:14:13.718Z,12.34
2022-10-28T20:16:45.406Z,12.37
2022-10-28T20:19:14.891Z,12.44
2022-10-28T20:21:45.249Z,12.28
2022-10-28T20:24:15.752Z,12.25
2022-10-28T20:26:45.193Z,12.32
2022-10-28T20:29:13.804Z,12.30
2022-10-28T20:31:43.363Z,12.24
2022-10-28T20:34:12.941Z,12.32
2022-10-28T20:36:46.514Z,12.35
2022-10-28T20:39:23.762Z,12.37
2022-10-28T20:41:53.290Z,12.64
2022-10-28T20:44:22.811Z,12.46
2022-10-28T20:46:52.202Z,12.37
2022-10-28T20:49:21.641Z,12.49
2022-10-28T20:51:51.127Z,12.52
2022-10-28T20:54:20.583Z,12.41
2022-10-28T20:56:50.163Z,12.50
2022-10-28T20:59:19.622Z,12.51
2022-10-28T21:01:51.169Z,12.33
2022-10-28T21:04:20.070Z,12.40
2022-10-28T21:06:49.652Z,12.23
2022-10-28T21:09:20.515Z,12.28
2022-10-28T21:11:50.103Z,12.37
2022-10-28T21:14:19.568Z,12.44
2022-10-28T21:16:51.838Z,12.45
2022-10-28T21:19:21.338Z,12.46
2022-10-28T21:21:50.815Z,12.41
2022-10-28T21:24:20.204Z,12.52
2022-10-28T21:26:52.056Z,12.43
2022-10-28T21:29:21.748Z,12.48
2022-10-28T21:31:51.162Z,12.59
2022-10-28T21:34:22.564Z,12.72
2022-10-28T21:36:52.093Z,12.49
2022-10-28T21:39:21.574Z,12.36
2022-10-28T21:41:51.042Z,12.41
2022-10-28T21:44:20.541Z,12.36
2022-10-28T21:46:50.601Z,12.44
2022-10-28T21:49:19.303Z,12.35
2022-10-28T21:51:48.683Z,12.33
2022-10-28T21:54:18.812Z,12.17
2022-10-28T21:56:50.715Z,12.21
2022-10-28T21:59:19.447Z,12.22
2022-10-28T22:01:49.083Z,12.27
2022-10-28T22:04:18.613Z,12.28
2022-10-28T22:09:37.730Z,12.27
2022-10-28T22:12:07.985Z,12.39
2022-10-28T22:14:37.466Z,12.44
2022-10-28T22:17:06.779Z,12.41
2022-10-28T22:19:36.196Z,12.37
2022-10-28T22:22:05.868Z,12.35
2022-10-28T22:24:34.569Z,12.41
2022-10-28T22:27:04.105Z,12.41
2022-10-28T22:29:33.573Z,12.36
2022-10-28T22:32:02.229Z,12.40
2022-10-28T22:34:31.642Z,12.46
2022-10-28T22:37:01.071Z,12.49
2022-10-28T22:39:30.534Z,12.42
2022-10-28T22:42:00.009Z,12.41
2022-10-28T22:44:29.460Z,12.40
2022-10-28T22:49:47.425Z,12.47
2022-10-28T22:52:19.844Z,12.48
2022-10-28T22:54:48.444Z,12.55
2022-10-28T22:57:17.972Z,12.41
2022-10-28T22:59:47.445Z,12.48
2022-10-28T23:02:16.954Z,12.42
2022-10-28T23:04:46.567Z,12.33
2022-10-28T23:07:16.048Z,12.30
2022-10-28T23:09:45.537Z,12.26
2022-10-28T23:12:15.120Z,12.35
2022-10-28T23:14:44.606Z,12.36
2022-10-28T23:17:14.108Z,12.33
2022-10-28T23:19:43.566Z,12.33
2022-10-28T23:22:12.969Z,12.50
2022-10-28T23:24:42.429Z,12.48
2022-10-28T23:27:11.935Z,12.46
2022-10-28T23:29:41.490Z,12.50
2022-10-28T23:32:10.936Z,12.41
2022-10-28T23:34:40.436Z,12.40
2022-10-28T23:37:09.062Z,12.43
2022-10-28T23:39:38.473Z,12.51
2022-10-28T23:42:07.863Z,12.45
2022-10-28T23:44:37.361Z,12.45
2022-10-28T23:47:06.884Z,12.47
2022-10-28T23:49:35.521Z,12.47
2022-10-28T23:52:05.146Z,12.43
2022-10-28T23:54:34.639Z,12.51
2022-10-28T23:57:05.127Z,12.55
2022-10-28T23:59:33.757Z,12.52
